Lanedale, Iowa
Current Conditions -  °F | °C
As of 6:15 PM on Wednesday 26 Nov 2014 (Local Time) from KCIN Reporting Station
Overcast Overcast  
Wind Chill:   Ceiling: 1000
Heat Index: 21°   Visibility: 10mi
Dew Point: 19°   Wind: 24mph
Humidity: 93%   Direction: 340°NNW
Pressure: 30.29"   Gusts: NA
Location:  42.385°N, 94.6304°W
Report Text: KCIN 270015Z AUTO 34021KT 10SM OVC010 M06/M07 A3029 RMK AO2
Loading
Personal Weather Stations






























Interactive Weather Map New forecast layout! Learn more

10-Day Weather Forecast

Advertisements
Track Severe Weather on mobile